| time (UTC) | temp C | wind direction | speed KPH | gust KPH | rain 1hr cm | rain 24hr cm | rain mn cm | humidity % | barometer mb |
| 20260906164513 | 22 | 124 | 16.1 | 19.3 | 0.00 | 0.00 | 0.00 | 49 | 1014.1 |
| 20260906163011 | 22 | 98 | 17.7 | 24.1 | 0.00 | 0.00 | 0.00 | 49 | 1014.1 |
| 20260906161508 | 22 | 360 | 16.1 | 22.5 | 0.00 | 0.00 | 0.00 | 49 | 1014.1 |
| 20260906160012 | 21 | 360 | 11.3 | 17.7 | 0.00 | 0.00 | 0.00 | 50 | 1014.3 |
| 20260906154508 | 21 | 124 | 11.3 | 20.9 | 0.00 | 0.00 | 0.00 | 49 | 1014.4 |
| 20260906153006 | 21 | 360 | 12.9 | 17.7 | 0.00 | 0.00 | 0.00 | 50 | 1014.2 |
| 20260906151516 | 21 | 112 | 8.0 | 16.1 | 0.00 | 0.00 | 0.00 | 51 | 1014.2 |
| 20260906150007 | 21 | 111 | 11.3 | 19.3 | 0.00 | 0.00 | 0.00 | 52 | 1014.2 |
| 20260906144504 | 20 | 360 | 11.3 | 17.7 | 0.00 | 0.00 | 0.00 | 53 | 1014.2 |
| 20260906143001 | 20 | 360 | 12.9 | 20.9 | 0.00 | 0.00 | 0.00 | 54 | 1013.9 |
| 20260906141500 | 20 | 121 | 12.9 | 20.9 | 0.00 | 0.00 | 0.00 | 55 | 1013.9 |
| 20260906140100 | 20 | 360 | 12.9 | 17.7 | 0.00 | 0.00 | 0.00 | 56 | 1014.0 |
| 20260906134604 | 20 | 122 | 9.7 | 17.7 | 0.00 | 0.00 | 0.00 | 56 | 1014.0 |
| 20260906133103 | 20 | 360 | 12.9 | 20.9 | 0.00 | 0.00 | 0.00 | 57 | 1013.7 |
| 20260906131555 | 20 | 360 | 12.9 | 20.9 | 0.00 | 0.00 | 0.00 | 57 | 1013.4 |
| 20260906130105 | 20 | 124 | 11.3 | 17.7 | 0.00 | 0.00 | 0.00 | 57 | 1013.4 |
| 20260906124552 | 20 | 360 | 9.7 | 14.5 | 0.00 | 0.00 | 0.00 | 57 | 1013.2 |
| 20260906123052 | 19 | 105 | 8.0 | 14.5 | 0.00 | 0.00 | 0.00 | 57 | 1013.0 |
| 20260906121556 | 19 | 360 | 11.3 | 16.1 | 0.00 | 0.00 | 0.00 | 58 | 1012.8 |
| 20260906120047 | 19 | 360 | 6.4 | 11.3 | 0.00 | 0.00 | 0.00 | 57 | 1012.7 |
| 20260906114556 | 19 | 104 | 8.0 | 11.3 | 0.00 | 0.00 | 0.00 | 57 | 1012.5 |
| 20260906113054 | 19 | 100 | 3.2 | 8.0 | 0.00 | 0.00 | 0.00 | 57 | 1012.4 |
| 20260906111544 | 20 | 92 | 4.8 | 9.7 | 0.00 | 0.00 | 0.00 | 57 | 1012.4 |
| 20260906110045 | 20 | 105 | 4.8 | 8.0 | 0.00 | 0.00 | 0.00 | 57 | 1012.3 |
| 20260906104542 | 20 | 118 | 1.6 | 6.4 | 0.00 | 0.00 | 0.00 | 57 | 1012.3 |
| 20260906103042 | 20 | 118 | 1.6 | 4.8 | 0.00 | 0.00 | 0.00 | 57 | 1012.2 |
| 20260906101541 | 20 | 118 | 0.0 | 9.7 | 0.00 | 0.00 | 0.00 | 57 | 1012.4 |
| 20260906100040 | 20 | 133 | 4.8 | 11.3 | 0.00 | 0.00 | 0.00 | 57 | 1012.4 |
| 20260906094539 | 20 | 134 | 4.8 | 9.7 | 0.00 | 0.00 | 0.00 | 57 | 1012.2 |
| 20260906093038 | 20 | 118 | 1.6 | 6.4 | 0.00 | 0.00 | 0.00 | 56 | 1011.9 |
| 20260906091536 | 19 | 119 | 1.6 | 4.8 | 0.00 | 0.00 | 0.00 | 55 | 1011.4 |
| 20260906090034 | 20 | 100 | 6.4 | 9.7 | 0.00 | 0.00 | 0.00 | 55 | 1011.4 |
| 20260906084533 | 20 | 71 | 8.0 | 11.3 | 0.00 | 0.00 | 0.00 | 54 | 1011.3 |
| 20260906083030 | 20 | 360 | 6.4 | 9.7 | 0.00 | 0.00 | 0.00 | 54 | 1011.2 |
| 20260906081541 | 20 | 98 | 6.4 | 12.9 | 0.00 | 0.00 | 0.00 | 54 | 1011.2 |
| 20260906080031 | 20 | 101 | 9.7 | 14.5 | 0.00 | 0.00 | 0.00 | 53 | 1011.1 |
| 20260906074527 | 20 | 84 | 9.7 | 14.5 | 0.00 | 0.00 | 0.00 | 52 | 1011.3 |
| 20260906073022 | 21 | 360 | 8.0 | 12.9 | 0.00 | 0.00 | 0.00 | 51 | 1011.3 |
| 20260906071520 | 21 | 98 | 6.4 | 11.3 | 0.00 | 0.00 | 0.00 | 50 | 1011.5 |
| 20260906070019 | 21 | 80 | 9.7 | 12.9 | 0.00 | 0.00 | 0.00 | 50 | 1011.6 |
| 20260906064518 | 21 | 79 | 9.7 | 14.5 | 0.00 | 0.00 | 0.00 | 50 | 1011.7 |
| 20260906063017 | 21 | 360 | 9.7 | 16.1 | 0.00 | 0.00 | 0.00 | 50 | 1011.7 |
| 20260906061514 | 21 | 360 | 11.3 | 16.1 | 0.00 | 0.00 | 0.00 | 49 | 1011.6 |
| 20260906060021 | 21 | 360 | 9.7 | 14.5 | 0.00 | 0.00 | 0.00 | 49 | 1011.6 |
| 20260906054511 | 21 | 70 | 8.0 | 11.3 | 0.00 | 0.00 | 0.00 | 48 | 1011.8 |
| 20260906053019 | 21 | 80 | 8.0 | 11.3 | 0.00 | 0.00 | 0.00 | 48 | 1011.5 |
| 20260906051507 | 21 | 105 | 1.6 | 6.4 | 0.00 | 0.00 | 0.00 | 46 | 1011.4 |
| 20260906050016 | 22 | 103 | 6.4 | 9.7 | 0.00 | 0.00 | 0.00 | 46 | 1011.4 |
| 20260906044503 | 22 | 80 | 8.0 | 11.3 | 0.00 | 0.00 | 0.00 | 46 | 1011.5 |
| 20260906043003 | 22 | 84 | 6.4 | 11.3 | 0.00 | 0.00 | 0.00 | 46 | 1011.4 |
| 20260906041502 | 22 | 360 | 8.0 | 11.3 | 0.00 | 0.00 | 0.00 | 46 | 1011.4 |
| 20260906040002 | 22 | 74 | 6.4 | 11.3 | 0.00 | 0.00 | 0.00 | 46 | 1011.3 |
| 20260906034502 | 22 | 360 | 6.4 | 12.9 | 0.00 | 0.00 | 0.00 | 46 | 1011.2 |
| 20260906033100 | 23 | 360 | 8.0 | 14.5 | 0.00 | 0.00 | 0.00 | 46 | 1011.3 |
| 20260906031604 | 23 | 65 | 6.4 | 12.9 | 0.00 | 0.00 | 0.00 | 46 | 1011.3 |
| 20260906030058 | 23 | 88 | 6.4 | 11.3 | 0.00 | 0.00 | 0.00 | 46 | 1011.1 |
| 20260906024555 | 23 | 360 | 6.4 | 11.3 | 0.00 | 0.00 | 0.00 | 46 | 1010.9 |
| 20260906023055 | 23 | 84 | 6.4 | 11.3 | 0.00 | 0.00 | 0.00 | 47 | 1010.7 |
| 20260906021554 | 23 | 89 | 8.0 | 12.9 | 0.00 | 0.00 | 0.00 | 47 | 1010.5 |
| 20260906020101 | 23 | 83 | 8.0 | 11.3 | 0.00 | 0.00 | 0.00 | 47 | 1010.4 |
| 20260906014553 | 23 | 96 | 4.8 | 11.3 | 0.00 | 0.00 | 0.00 | 47 | 1010.2 |
| 20260906013052 | 23 | 95 | 3.2 | 11.3 | 0.00 | 0.00 | 0.00 | 48 | 1010.0 |
| 20260906011552 | 24 | 360 | 6.4 | 11.3 | 0.00 | 0.00 | 0.00 | 50 | 1010.0 |
| 20260906010051 | 24 | 360 | 8.0 | 11.3 | 0.00 | 0.00 | 0.00 | 51 | 1010.0 |
| 20260906004551 | 25 | 80 | 6.4 | 12.9 | 0.00 | 0.00 | 0.00 | 52 | 1009.7 |
| 20260906003050 | 25 | 360 | 9.7 | 16.1 | 0.00 | 0.00 | 0.00 | 52 | 1009.6 |
| 20260906001549 | 26 | 74 | 8.0 | 14.5 | 0.00 | 0.00 | 0.00 | 52 | 1009.7 |
| 20260906000049 | 26 | 360 | 9.7 | 16.1 | 0.00 | 0.00 | 0.00 | 53 | 1009.6 |
| 20260905234548 | 26 | 76 | 8.0 | 16.1 | 0.00 | 0.00 | 0.00 | 53 | 1009.8 |
| 20260905233049 | 27 | 87 | 9.7 | 14.5 | 0.00 | 0.00 | 0.00 | 53 | 1009.6 |
| 20260905231548 | 27 | 360 | 9.7 | 16.1 | 0.00 | 0.00 | 0.00 | 53 | 1009.6 |
| 20260905230052 | 28 | 87 | 9.7 | 14.5 | 0.00 | 0.00 | 0.00 | 52 | 1009.6 |
| 20260905224601 | 28 | 360 | 11.3 | 17.7 | 0.00 | 0.00 | 0.00 | 51 | 1009.2 |
| 20260905223047 | 29 | 62 | 12.9 | 22.5 | 0.00 | 0.00 | 0.00 | 50 | 1008.9 |
| 20260905221556 | 29 | 360 | 14.5 | 22.5 | 0.00 | 0.00 | 0.00 | 50 | 1008.7 |
| 20260905220050 | 29 | 360 | 16.1 | 22.5 | 0.00 | 0.00 | 0.00 | 49 | 1008.7 |
| 20260905214545 | 30 | 84 | 14.5 | 24.1 | 0.00 | 0.00 | 0.00 | 49 | 1008.6 |
| 20260905213043 | 30 | 62 | 11.3 | 22.5 | 0.00 | 0.00 | 0.00 | 48 | 1008.5 |
| 20260905211544 | 30 | 62 | 12.9 | 19.3 | 0.00 | 0.00 | 0.00 | 47 | 1008.7 |
| 20260905210043 | 30 | 73 | 12.9 | 24.1 | 0.00 | 0.00 | 0.00 | 47 | 1009.0 |
| 20260905204542 | 31 | 84 | 8.0 | 12.9 | 0.00 | 0.00 | 0.00 | 46 | 1009.2 |
| 20260905203056 | 31 | 145 | 4.8 | 14.5 | 0.00 | 0.00 | 0.00 | 46 | 1009.2 |
| 20260905201544 | 31 | 113 | 1.6 | 12.9 | 0.00 | 0.00 | 0.00 | 47 | 1009.5 |
| 20260905200051 | 30 | 85 | 8.0 | 14.5 | 0.00 | 0.00 | 0.00 | 48 | 1009.8 |
| 20260905194539 | 30 | 112 | 8.0 | 16.1 | 0.00 | 0.00 | 0.00 | 48 | 1009.8 |
| 20260905193038 | 31 | 298 | 6.4 | 12.9 | 0.00 | 0.00 | 0.00 | 48 | 1010.1 |
| 20260905191538 | 32 | 100 | 4.8 | 11.3 | 0.00 | 0.00 | 0.00 | 45 | 1010.0 |
| 20260905190034 | 31 | 140 | 4.8 | 9.7 | 0.00 | 0.00 | 0.00 | 46 | 1010.3 |
| 20260905184534 | 31 | 98 | 4.8 | 16.1 | 0.00 | 0.00 | 0.00 | 46 | 1010.5 |
| 20260905183032 | 30 | 277 | 1.6 | 9.7 | 0.00 | 0.00 | 0.00 | 47 | 1010.5 |
| 20260905181529 | 30 | 80 | 3.2 | 11.3 | 0.00 | 0.00 | 0.00 | 47 | 1010.7 |
| 20260905180028 | 30 | 94 | 1.6 | 9.7 | 0.00 | 0.00 | 0.00 | 46 | 1010.7 |
| 20260905174534 | 30 | 103 | 3.2 | 9.7 | 0.00 | 0.00 | 0.00 | 47 | 1010.6 |
| 20260905173027 | 29 | 95 | 6.4 | 17.7 | 0.00 | 0.00 | 0.00 | 48 | 1010.6 |
| 20260905171535 | 29 | 96 | 8.0 | 17.7 | 0.00 | 0.00 | 0.00 | 47 | 1010.4 |
| 20260905170019 | 29 | 111 | 4.8 | 11.3 | 0.00 | 0.00 | 0.00 | 47 | 1010.5 |